sensor_id;sensor_type;location;lat;lon;timestamp;temperature;humidity
29731;DHT22;16639;51.488;0.152;2023-03-29T00:02:18;9.30;99.90
29731;DHT22;16639;51.488;0.152;2023-03-29T00:04:46;9.50;99.90
29731;DHT22;16639;51.488;0.152;2023-03-29T00:07:13;8.70;99.90
29731;DHT22;16639;51.488;0.152;2023-03-29T00:09:41;9.30;99.90
29731;DHT22;16639;51.488;0.152;2023-03-29T00:12:08;9.30;99.90
29731;DHT22;16639;51.488;0.152;2023-03-29T00:14:37;9.30;99.90
29731;DHT22;16639;51.488;0.152;2023-03-29T00:17:04;9.30;99.90
29731;DHT22;16639;51.488;0.152;2023-03-29T00:19:32;9.30;99.90
29731;DHT22;16639;51.488;0.152;2023-03-29T00:22:03;9.40;99.90
29731;DHT22;16639;51.488;0.152;2023-03-29T00:24:32;9.40;99.90
29731;DHT22;16639;51.488;0.152;2023-03-29T00:26:59;9.40;99.90
29731;DHT22;16639;51.488;0.152;2023-03-29T00:29:27;9.20;99.90
29731;DHT22;16639;51.488;0.152;2023-03-29T00:31:54;9.40;99.90
29731;DHT22;16639;51.488;0.152;2023-03-29T00:34:23;9.50;99.90
29731;DHT22;16639;51.488;0.152;2023-03-29T00:36:51;9.40;99.90
29731;DHT22;16639;51.488;0.152;2023-03-29T00:39:19;9.50;99.90
29731;DHT22;16639;51.488;0.152;2023-03-29T00:41:48;9.50;99.90
29731;DHT22;16639;51.488;0.152;2023-03-29T00:47:45;9.50;99.90
29731;DHT22;16639;51.488;0.152;2023-03-29T00:52:54;9.50;99.90
29731;DHT22;16639;51.488;0.152;2023-03-29T00:55:24;9.50;99.90
29731;DHT22;16639;51.488;0.152;2023-03-29T00:57:52;9.50;99.90
29731;DHT22;16639;51.488;0.152;2023-03-29T01:00:26;9.60;99.90
29731;DHT22;16639;51.488;0.152;2023-03-29T01:02:56;9.50;99.90
29731;DHT22;16639;51.488;0.152;2023-03-29T01:05:32;9.50;99.90
29731;DHT22;16639;51.488;0.152;2023-03-29T01:08:05;9.50;99.90
29731;DHT22;16639;51.488;0.152;2023-03-29T01:10:46;9.60;99.90
29731;DHT22;16639;51.488;0.152;2023-03-29T01:13:19;9.60;99.90
29731;DHT22;16639;51.488;0.152;2023-03-29T01:15:48;9.60;99.90
29731;DHT22;16639;51.488;0.152;2023-03-29T01:18:15;9.60;99.90
29731;DHT22;16639;51.488;0.152;2023-03-29T01:26:46;9.60;99.90
29731;DHT22;16639;51.488;0.152;2023-03-29T01:29:38;9.50;99.90
29731;DHT22;16639;51.488;0.152;2023-03-29T01:32:15;9.60;99.90
29731;DHT22;16639;51.488;0.152;2023-03-29T01:35:03;9.50;99.90
29731;DHT22;16639;51.488;0.152;2023-03-29T01:37:40;9.50;99.90
29731;DHT22;16639;51.488;0.152;2023-03-29T01:40:10;9.50;99.90
29731;DHT22;16639;51.488;0.152;2023-03-29T01:48:25;9.50;99.90
29731;DHT22;16639;51.488;0.152;2023-03-29T01:51:02;9.60;99.90
29731;DHT22;16639;51.488;0.152;2023-03-29T01:56:13;9.60;99.90
29731;DHT22;16639;51.488;0.152;2023-03-29T01:58:51;9.60;99.90
29731;DHT22;16639;51.488;0.152;2023-03-29T02:01:23;9.60;99.90
29731;DHT22;16639;51.488;0.152;2023-03-29T02:03:58;9.60;99.90
29731;DHT22;16639;51.488;0.152;2023-03-29T02:06:27;9.50;99.90
29731;DHT22;16639;51.488;0.152;2023-03-29T02:08:56;9.50;99.90
29731;DHT22;16639;51.488;0.152;2023-03-29T02:11:24;9.50;99.90
29731;DHT22;16639;51.488;0.152;2023-03-29T02:13:53;9.60;99.90
29731;DHT22;16639;51.488;0.152;2023-03-29T02:16:20;9.50;99.90
29731;DHT22;16639;51.488;0.152;2023-03-29T02:18:50;9.50;99.90
29731;DHT22;16639;51.488;0.152;2023-03-29T02:21:24;8.30;99.90
29731;DHT22;16639;51.488;0.152;2023-03-29T02:23:54;9.50;99.90
29731;DHT22;16639;51.488;0.152;2023-03-29T02:26:24;9.50;99.90
29731;DHT22;16639;51.488;0.152;2023-03-29T02:28:52;9.40;99.90
29731;DHT22;16639;51.488;0.152;2023-03-29T02:31:27;9.30;99.90
29731;DHT22;16639;51.488;0.152;2023-03-29T02:36:39;9.30;99.90
29731;DHT22;16639;51.488;0.152;2023-03-29T02:39:09;9.30;99.90
29731;DHT22;16639;51.488;0.152;2023-03-29T02:41:41;9.20;99.90
29731;DHT22;16639;51.488;0.152;2023-03-29T02:44:15;9.20;99.90
29731;DHT22;16639;51.488;0.152;2023-03-29T02:46:44;9.20;99.90
29731;DHT22;16639;51.488;0.152;2023-03-29T02:49:15;9.20;99.90
29731;DHT22;16639;51.488;0.152;2023-03-29T02:51:43;9.20;99.90
29731;DHT22;16639;51.488;0.152;2023-03-29T02:54:18;9.20;99.90
29731;DHT22;16639;51.488;0.152;2023-03-29T02:57:04;8.80;99.90
29731;DHT22;16639;51.488;0.152;2023-03-29T02:59:33;9.10;99.90
29731;DHT22;16639;51.488;0.152;2023-03-29T03:02:01;9.10;99.90
29731;DHT22;16639;51.488;0.152;2023-03-29T03:04:29;9.20;99.90
29731;DHT22;16639;51.488;0.152;2023-03-29T03:06:57;9.10;99.90
29731;DHT22;16639;51.488;0.152;2023-03-29T03:09:24;8.90;99.90
29731;DHT22;16639;51.488;0.152;2023-03-29T03:11:52;9.20;99.90
29731;DHT22;16639;51.488;0.152;2023-03-29T03:14:19;9.20;99.90
29731;DHT22;16639;51.488;0.152;2023-03-29T03:16:49;9.20;99.90
29731;DHT22;16639;51.488;0.152;2023-03-29T03:19:16;9.30;99.90
29731;DHT22;16639;51.488;0.152;2023-03-29T03:21:43;9.30;99.90
29731;DHT22;16639;51.488;0.152;2023-03-29T03:24:13;9.30;99.90
29731;DHT22;16639;51.488;0.152;2023-03-29T03:26:40;9.30;99.90
29731;DHT22;16639;51.488;0.152;2023-03-29T03:29:07;9.30;99.90
29731;DHT22;16639;51.488;0.152;2023-03-29T03:31:34;9.60;99.90
29731;DHT22;16639;51.488;0.152;2023-03-29T03:34:02;9.40;99.90
29731;DHT22;16639;51.488;0.152;2023-03-29T03:36:29;9.50;99.90
29731;DHT22;16639;51.488;0.152;2023-03-29T03:38:57;9.70;99.90
29731;DHT22;16639;51.488;0.152;2023-03-29T03:41:24;9.50;99.90
29731;DHT22;16639;51.488;0.152;2023-03-29T03:43:52;9.50;99.90
29731;DHT22;16639;51.488;0.152;2023-03-29T03:46:19;9.50;99.90
29731;DHT22;16639;51.488;0.152;2023-03-29T03:48:47;9.60;99.90
29731;DHT22;16639;51.488;0.152;2023-03-29T03:51:14;9.50;99.90
29731;DHT22;16639;51.488;0.152;2023-03-29T03:53:41;9.50;99.90
29731;DHT22;16639;51.488;0.152;2023-03-29T03:56:09;9.40;99.90
29731;DHT22;16639;51.488;0.152;2023-03-29T03:58:37;10.00;99.90
29731;DHT22;16639;51.488;0.152;2023-03-29T04:01:05;9.40;99.90
29731;DHT22;16639;51.488;0.152;2023-03-29T04:03:34;9.40;99.90
29731;DHT22;16639;51.488;0.152;2023-03-29T04:06:04;9.40;99.90
29731;DHT22;16639;51.488;0.152;2023-03-29T04:08:31;9.40;99.90
29731;DHT22;16639;51.488;0.152;2023-03-29T04:10:59;9.50;99.90
29731;DHT22;16639;51.488;0.152;2023-03-29T04:13:27;9.40;99.90
29731;DHT22;16639;51.488;0.152;2023-03-29T04:15:54;9.50;99.90
29731;DHT22;16639;51.488;0.152;2023-03-29T04:18:26;9.50;99.90
29731;DHT22;16639;51.488;0.152;2023-03-29T04:20:53;9.00;99.90
29731;DHT22;16639;51.488;0.152;2023-03-29T04:23:21;10.00;99.90
29731;DHT22;16639;51.488;0.152;2023-03-29T04:25:48;9.50;99.90
29731;DHT22;16639;51.488;0.152;2023-03-29T04:28:16;9.50;99.90
29731;DHT22;16639;51.488;0.152;2023-03-29T04:30:45;9.50;99.90
29731;DHT22;16639;51.488;0.152;2023-03-29T04:33:12;9.50;99.90
29731;DHT22;16639;51.488;0.152;2023-03-29T04:35:40;9.50;99.90
29731;DHT22;16639;51.488;0.152;2023-03-29T04:38:07;9.40;99.90
29731;DHT22;16639;51.488;0.152;2023-03-29T04:40:36;9.50;99.90
29731;DHT22;16639;51.488;0.152;2023-03-29T04:43:04;9.50;99.90
29731;DHT22;16639;51.488;0.152;2023-03-29T04:45:32;9.50;99.90
29731;DHT22;16639;51.488;0.152;2023-03-29T04:47:59;9.50;99.90
29731;DHT22;16639;51.488;0.152;2023-03-29T04:50:27;9.40;99.90
29731;DHT22;16639;51.488;0.152;2023-03-29T04:52:54;9.50;99.90
29731;DHT22;16639;51.488;0.152;2023-03-29T04:55:22;9.40;99.90
29731;DHT22;16639;51.488;0.152;2023-03-29T04:57:49;9.20;99.90
29731;DHT22;16639;51.488;0.152;2023-03-29T05:00:17;8.10;99.90
29731;DHT22;16639;51.488;0.152;2023-03-29T05:02:46;9.40;99.90
29731;DHT22;16639;51.488;0.152;2023-03-29T05:05:13;9.30;99.90
29731;DHT22;16639;51.488;0.152;2023-03-29T05:07:41;10.00;99.90
29731;DHT22;16639;51.488;0.152;2023-03-29T05:10:08;8.50;99.90
29731;DHT22;16639;51.488;0.152;2023-03-29T05:12:36;9.30;99.90
29731;DHT22;16639;51.488;0.152;2023-03-29T05:15:04;9.30;99.90
29731;DHT22;16639;51.488;0.152;2023-03-29T05:17:32;9.20;99.90
29731;DHT22;16639;51.488;0.152;2023-03-29T05:20:00;9.30;99.90
29731;DHT22;16639;51.488;0.152;2023-03-29T05:22:27;9.30;99.90
29731;DHT22;16639;51.488;0.152;2023-03-29T05:24:55;9.20;99.90
29731;DHT22;16639;51.488;0.152;2023-03-29T05:27:23;9.20;99.90
29731;DHT22;16639;51.488;0.152;2023-03-29T05:29:51;9.20;99.90
29731;DHT22;16639;51.488;0.152;2023-03-29T05:32:19;9.20;99.90
29731;DHT22;16639;51.488;0.152;2023-03-29T05:34:46;9.10;99.90
29731;DHT22;16639;51.488;0.152;2023-03-29T05:37:14;9.10;99.90
29731;DHT22;16639;51.488;0.152;2023-03-29T05:39:41;9.10;99.90
29731;DHT22;16639;51.488;0.152;2023-03-29T05:42:09;9.10;99.90
29731;DHT22;16639;51.488;0.152;2023-03-29T05:44:39;9.10;99.90
29731;DHT22;16639;51.488;0.152;2023-03-29T05:47:07;9.10;99.90
29731;DHT22;16639;51.488;0.152;2023-03-29T05:49:34;9.20;99.90
29731;DHT22;16639;51.488;0.152;2023-03-29T05:52:04;9.10;99.90
29731;DHT22;16639;51.488;0.152;2023-03-29T05:54:32;9.10;99.90
29731;DHT22;16639;51.488;0.152;2023-03-29T05:57:00;9.20;99.90
29731;DHT22;16639;51.488;0.152;2023-03-29T05:59:27;8.90;99.90
29731;DHT22;16639;51.488;0.152;2023-03-29T06:01:55;9.20;99.90
29731;DHT22;16639;51.488;0.152;2023-03-29T06:04:23;9.20;99.90
29731;DHT22;16639;51.488;0.152;2023-03-29T06:06:50;9.20;99.90
29731;DHT22;16639;51.488;0.152;2023-03-29T06:09:19;9.30;99.90
29731;DHT22;16639;51.488;0.152;2023-03-29T06:11:46;9.30;99.90
29731;DHT22;16639;51.488;0.152;2023-03-29T06:14:14;9.30;99.90
29731;DHT22;16639;51.488;0.152;2023-03-29T06:16:41;9.30;99.90
29731;DHT22;16639;51.488;0.152;2023-03-29T06:19:09;9.30;99.90
29731;DHT22;16639;51.488;0.152;2023-03-29T06:21:36;9.30;99.90
29731;DHT22;16639;51.488;0.152;2023-03-29T06:24:04;9.30;99.90
29731;DHT22;16639;51.488;0.152;2023-03-29T06:26:31;9.30;99.90
29731;DHT22;16639;51.488;0.152;2023-03-29T06:28:58;9.30;99.90
29731;DHT22;16639;51.488;0.152;2023-03-29T06:31:26;9.30;99.90
29731;DHT22;16639;51.488;0.152;2023-03-29T06:33:53;9.40;99.90
29731;DHT22;16639;51.488;0.152;2023-03-29T06:36:21;9.40;99.90
29731;DHT22;16639;51.488;0.152;2023-03-29T06:38:49;9.50;99.90
29731;DHT22;16639;51.488;0.152;2023-03-29T06:41:17;9.50;99.90
29731;DHT22;16639;51.488;0.152;2023-03-29T06:43:44;9.60;99.90
29731;DHT22;16639;51.488;0.152;2023-03-29T06:46:11;9.60;99.90
29731;DHT22;16639;51.488;0.152;2023-03-29T06:48:39;9.70;99.90
29731;DHT22;16639;51.488;0.152;2023-03-29T06:51:07;9.60;99.90
29731;DHT22;16639;51.488;0.152;2023-03-29T06:53:35;9.70;99.90
29731;DHT22;16639;51.488;0.152;2023-03-29T06:56:03;9.70;99.90
29731;DHT22;16639;51.488;0.152;2023-03-29T06:58:36;9.80;99.90
29731;DHT22;16639;51.488;0.152;2023-03-29T07:01:04;9.80;99.90
29731;DHT22;16639;51.488;0.152;2023-03-29T07:03:33;9.90;99.90
29731;DHT22;16639;51.488;0.152;2023-03-29T07:06:03;10.00;99.90
29731;DHT22;16639;51.488;0.152;2023-03-29T07:08:37;10.10;99.90
29731;DHT22;16639;51.488;0.152;2023-03-29T07:11:11;10.00;99.90
29731;DHT22;16639;51.488;0.152;2023-03-29T07:13:40;10.20;99.90
29731;DHT22;16639;51.488;0.152;2023-03-29T07:16:10;9.80;99.90
29731;DHT22;16639;51.488;0.152;2023-03-29T07:18:41;10.30;99.90
29731;DHT22;16639;51.488;0.152;2023-03-29T07:21:11;10.40;99.90
29731;DHT22;16639;51.488;0.152;2023-03-29T07:23:39;10.40;99.90
29731;DHT22;16639;51.488;0.152;2023-03-29T07:26:07;10.40;99.90
29731;DHT22;16639;51.488;0.152;2023-03-29T07:28:35;10.40;99.90
29731;DHT22;16639;51.488;0.152;2023-03-29T07:31:08;10.50;99.90
29731;DHT22;16639;51.488;0.152;2023-03-29T07:33:37;10.40;99.90
29731;DHT22;16639;51.488;0.152;2023-03-29T07:36:06;10.50;99.90
29731;DHT22;16639;51.488;0.152;2023-03-29T07:38:33;10.50;99.90
29731;DHT22;16639;51.488;0.152;2023-03-29T07:41:03;10.50;99.90
29731;DHT22;16639;51.488;0.152;2023-03-29T07:43:31;10.50;99.90
29731;DHT22;16639;51.488;0.152;2023-03-29T07:46:01;10.60;99.90
29731;DHT22;16639;51.488;0.152;2023-03-29T07:48:29;10.60;99.90
29731;DHT22;16639;51.488;0.152;2023-03-29T07:50:57;10.70;99.90
29731;DHT22;16639;51.488;0.152;2023-03-29T07:53:24;10.70;99.90
29731;DHT22;16639;51.488;0.152;2023-03-29T07:55:53;10.80;99.90
29731;DHT22;16639;51.488;0.152;2023-03-29T07:58:20;10.90;99.90
29731;DHT22;16639;51.488;0.152;2023-03-29T08:00:48;11.00;99.90
29731;DHT22;16639;51.488;0.152;2023-03-29T08:03:16;11.10;99.90
29731;DHT22;16639;51.488;0.152;2023-03-29T08:05:44;11.20;99.90
29731;DHT22;16639;51.488;0.152;2023-03-29T08:08:11;11.20;99.90
29731;DHT22;16639;51.488;0.152;2023-03-29T08:10:40;11.20;99.90
29731;DHT22;16639;51.488;0.152;2023-03-29T08:13:09;11.10;99.90
29731;DHT22;16639;51.488;0.152;2023-03-29T08:15:37;11.30;99.90
29731;DHT22;16639;51.488;0.152;2023-03-29T08:18:06;11.30;99.90
29731;DHT22;16639;51.488;0.152;2023-03-29T08:20:34;11.40;99.90
29731;DHT22;16639;51.488;0.152;2023-03-29T08:23:01;11.40;99.90
29731;DHT22;16639;51.488;0.152;2023-03-29T08:25:28;11.30;99.90
29731;DHT22;16639;51.488;0.152;2023-03-29T08:27:56;11.40;99.90
29731;DHT22;16639;51.488;0.152;2023-03-29T08:30:24;11.40;99.90
29731;DHT22;16639;51.488;0.152;2023-03-29T08:32:51;11.40;99.90
29731;DHT22;16639;51.488;0.152;2023-03-29T08:35:21;11.50;99.90
29731;DHT22;16639;51.488;0.152;2023-03-29T08:37:49;11.50;99.90
29731;DHT22;16639;51.488;0.152;2023-03-29T08:40:22;11.60;99.90
29731;DHT22;16639;51.488;0.152;2023-03-29T08:43:04;11.50;99.90
29731;DHT22;16639;51.488;0.152;2023-03-29T08:48:37;11.60;99.90
29731;DHT22;16639;51.488;0.152;2023-03-29T08:51:16;11.60;99.90
29731;DHT22;16639;51.488;0.152;2023-03-29T08:53:49;11.70;99.90
29731;DHT22;16639;51.488;0.152;2023-03-29T08:56:37;11.60;99.90
29731;DHT22;16639;51.488;0.152;2023-03-29T08:59:16;11.60;99.90
29731;DHT22;16639;51.488;0.152;2023-03-29T09:01:48;11.50;99.90
29731;DHT22;16639;51.488;0.152;2023-03-29T09:04:19;11.60;99.90
29731;DHT22;16639;51.488;0.152;2023-03-29T09:06:49;11.50;99.90
29731;DHT22;16639;51.488;0.152;2023-03-29T09:09:21;11.50;99.90
29731;DHT22;16639;51.488;0.152;2023-03-29T09:12:35;11.60;99.90
29731;DHT22;16639;51.488;0.152;2023-03-29T09:31:21;11.20;99.90
29731;DHT22;16639;51.488;0.152;2023-03-29T09:33:56;11.80;99.90
29731;DHT22;16639;51.488;0.152;2023-03-29T09:36:33;11.90;99.90
29731;DHT22;16639;51.488;0.152;2023-03-29T09:39:03;11.90;99.90
29731;DHT22;16639;51.488;0.152;2023-03-29T09:41:53;11.90;99.90
29731;DHT22;16639;51.488;0.152;2023-03-29T09:44:26;11.90;99.90
29731;DHT22;16639;51.488;0.152;2023-03-29T09:47:01;11.90;99.90
29731;DHT22;16639;51.488;0.152;2023-03-29T09:49:37;11.80;99.90
29731;DHT22;16639;51.488;0.152;2023-03-29T09:52:11;11.90;99.90
29731;DHT22;16639;51.488;0.152;2023-03-29T09:54:40;11.90;99.90
29731;DHT22;16639;51.488;0.152;2023-03-29T09:57:12;12.00;99.90
29731;DHT22;16639;51.488;0.152;2023-03-29T09:59:40;11.90;99.90
29731;DHT22;16639;51.488;0.152;2023-03-29T10:02:12;12.30;99.90
29731;DHT22;16639;51.488;0.152;2023-03-29T10:04:40;12.00;99.90
29731;DHT22;16639;51.488;0.152;2023-03-29T10:07:16;12.00;99.90
29731;DHT22;16639;51.488;0.152;2023-03-29T10:09:45;12.00;99.90
29731;DHT22;16639;51.488;0.152;2023-03-29T10:12:15;12.10;99.90
29731;DHT22;16639;51.488;0.152;2023-03-29T10:14:48;12.10;99.90
29731;DHT22;16639;51.488;0.152;2023-03-29T10:17:27;11.50;99.90
29731;DHT22;16639;51.488;0.152;2023-03-29T10:19:57;12.20;99.90
29731;DHT22;16639;51.488;0.152;2023-03-29T10:22:35;12.30;99.90
29731;DHT22;16639;51.488;0.152;2023-03-29T10:25:12;12.30;99.90
29731;DHT22;16639;51.488;0.152;2023-03-29T10:27:41;12.30;99.90
29731;DHT22;16639;51.488;0.152;2023-03-29T10:30:16;12.40;99.90
29731;DHT22;16639;51.488;0.152;2023-03-29T10:32:44;13.90;99.90
29731;DHT22;16639;51.488;0.152;2023-03-29T10:35:36;12.40;99.90
29731;DHT22;16639;51.488;0.152;2023-03-29T10:38:13;12.40;99.90
29731;DHT22;16639;51.488;0.152;2023-03-29T10:40:46;12.40;99.90
29731;DHT22;16639;51.488;0.152;2023-03-29T10:43:48;12.90;99.90
29731;DHT22;16639;51.488;0.152;2023-03-29T10:46:32;12.50;99.90
29731;DHT22;16639;51.488;0.152;2023-03-29T10:49:04;12.50;99.90
29731;DHT22;16639;51.488;0.152;2023-03-29T10:51:44;12.50;99.90
29731;DHT22;16639;51.488;0.152;2023-03-29T10:54:14;12.50;99.90
29731;DHT22;16639;51.488;0.152;2023-03-29T10:56:55;12.40;99.90
29731;DHT22;16639;51.488;0.152;2023-03-29T11:10:19;12.40;99.90
29731;DHT22;16639;51.488;0.152;2023-03-29T11:21:29;12.60;99.90
29731;DHT22;16639;51.488;0.152;2023-03-29T11:38:28;12.50;99.90
29731;DHT22;16639;51.488;0.152;2023-03-29T11:41:20;12.50;99.90
29731;DHT22;16639;51.488;0.152;2023-03-29T11:44:12;12.50;99.90
29731;DHT22;16639;51.488;0.152;2023-03-29T11:46:54;12.50;99.90
29731;DHT22;16639;51.488;0.152;2023-03-29T11:52:51;12.50;99.90
29731;DHT22;16639;51.488;0.152;2023-03-29T11:55:24;12.00;99.90
29731;DHT22;16639;51.488;0.152;2023-03-29T11:57:57;12.60;99.90
29731;DHT22;16639;51.488;0.152;2023-03-29T12:00:30;12.70;99.90
29731;DHT22;16639;51.488;0.152;2023-03-29T12:03:12;12.80;99.90
29731;DHT22;16639;51.488;0.152;2023-03-29T12:05:46;12.80;99.90
29731;DHT22;16639;51.488;0.152;2023-03-29T12:08:21;12.90;99.90
29731;DHT22;16639;51.488;0.152;2023-03-29T12:13:33;13.10;99.90
29731;DHT22;16639;51.488;0.152;2023-03-29T12:16:14;13.20;99.90
29731;DHT22;16639;51.488;0.152;2023-03-29T12:18:45;13.40;99.90
29731;DHT22;16639;51.488;0.152;2023-03-29T12:21:19;13.30;99.90
29731;DHT22;16639;51.488;0.152;2023-03-29T12:23:48;13.40;99.90
29731;DHT22;16639;51.488;0.152;2023-03-29T12:38:22;13.70;99.90
29731;DHT22;16639;51.488;0.152;2023-03-29T12:40:56;14.10;99.90
29731;DHT22;16639;51.488;0.152;2023-03-29T12:43:35;14.10;99.90
29731;DHT22;16639;51.488;0.152;2023-03-29T12:46:07;14.00;99.90
29731;DHT22;16639;51.488;0.152;2023-03-29T12:48:37;14.00;99.90
29731;DHT22;16639;51.488;0.152;2023-03-29T12:51:30;14.00;99.90
29731;DHT22;16639;51.488;0.152;2023-03-29T12:54:07;13.90;99.90
29731;DHT22;16639;51.488;0.152;2023-03-29T12:56:57;13.80;99.90
29731;DHT22;16639;51.488;0.152;2023-03-29T13:04:54;14.00;99.90
29731;DHT22;16639;51.488;0.152;2023-03-29T13:09:58;14.20;99.90
29731;DHT22;16639;51.488;0.152;2023-03-29T13:12:41;14.30;99.90
29731;DHT22;16639;51.488;0.152;2023-03-29T13:20:23;14.40;99.90
29731;DHT22;16639;51.488;0.152;2023-03-29T13:28:12;14.50;99.90
29731;DHT22;16639;51.488;0.152;2023-03-29T13:31:05;14.50;99.90
29731;DHT22;16639;51.488;0.152;2023-03-29T13:36:14;14.60;99.90
29731;DHT22;16639;51.488;0.152;2023-03-29T13:38:48;14.70;99.90
29731;DHT22;16639;51.488;0.152;2023-03-29T13:41:48;14.70;99.90
29731;DHT22;16639;51.488;0.152;2023-03-29T13:46:59;14.70;99.90
29731;DHT22;16639;51.488;0.152;2023-03-29T13:49:28;15.10;99.90
29731;DHT22;16639;51.488;0.152;2023-03-29T13:52:23;14.90;99.90
29731;DHT22;16639;51.488;0.152;2023-03-29T13:54:58;14.60;99.90
29731;DHT22;16639;51.488;0.152;2023-03-29T13:57:45;14.60;99.90
29731;DHT22;16639;51.488;0.152;2023-03-29T14:00:18;14.60;99.90
29731;DHT22;16639;51.488;0.152;2023-03-29T14:02:52;14.50;99.90
29731;DHT22;16639;51.488;0.152;2023-03-29T14:05:39;14.60;99.90
29731;DHT22;16639;51.488;0.152;2023-03-29T14:08:15;14.70;99.90
29731;DHT22;16639;51.488;0.152;2023-03-29T14:10:44;14.60;99.90
29731;DHT22;16639;51.488;0.152;2023-03-29T14:13:13;14.70;99.90
29731;DHT22;16639;51.488;0.152;2023-03-29T14:15:48;14.70;99.90
29731;DHT22;16639;51.488;0.152;2023-03-29T14:18:20;14.70;99.90
29731;DHT22;16639;51.488;0.152;2023-03-29T14:20:53;14.70;99.90
29731;DHT22;16639;51.488;0.152;2023-03-29T14:23:27;14.60;99.90
29731;DHT22;16639;51.488;0.152;2023-03-29T14:26:16;14.50;99.90
29731;DHT22;16639;51.488;0.152;2023-03-29T14:28:47;14.60;99.90
29731;DHT22;16639;51.488;0.152;2023-03-29T14:31:20;14.80;99.90
29731;DHT22;16639;51.488;0.152;2023-03-29T14:33:56;14.40;99.90
29731;DHT22;16639;51.488;0.152;2023-03-29T14:36:26;14.40;99.90
29731;DHT22;16639;51.488;0.152;2023-03-29T14:39:16;14.30;99.90
29731;DHT22;16639;51.488;0.152;2023-03-29T14:41:51;14.30;99.90
29731;DHT22;16639;51.488;0.152;2023-03-29T14:44:21;14.20;99.90
29731;DHT22;16639;51.488;0.152;2023-03-29T14:46:50;14.20;99.90
29731;DHT22;16639;51.488;0.152;2023-03-29T14:49:20;14.20;99.90
29731;DHT22;16639;51.488;0.152;2023-03-29T14:51:49;13.80;99.90
29731;DHT22;16639;51.488;0.152;2023-03-29T14:54:25;14.20;99.90
29731;DHT22;16639;51.488;0.152;2023-03-29T14:56:54;14.10;99.90
29731;DHT22;16639;51.488;0.152;2023-03-29T14:59:26;14.10;99.90
29731;DHT22;16639;51.488;0.152;2023-03-29T15:01:54;14.10;99.90
29731;DHT22;16639;51.488;0.152;2023-03-29T15:04:21;14.10;99.90
29731;DHT22;16639;51.488;0.152;2023-03-29T15:06:49;14.10;99.90
29731;DHT22;16639;51.488;0.152;2023-03-29T15:09:31;14.20;99.90
29731;DHT22;16639;51.488;0.152;2023-03-29T15:12:01;14.10;99.90
29731;DHT22;16639;51.488;0.152;2023-03-29T15:14:32;14.30;99.90
29731;DHT22;16639;51.488;0.152;2023-03-29T15:17:06;14.30;99.90
29731;DHT22;16639;51.488;0.152;2023-03-29T15:19:43;14.30;99.90
29731;DHT22;16639;51.488;0.152;2023-03-29T15:22:10;14.20;99.90
29731;DHT22;16639;51.488;0.152;2023-03-29T15:24:46;14.20;99.90
29731;DHT22;16639;51.488;0.152;2023-03-29T15:27:16;14.20;99.90
29731;DHT22;16639;51.488;0.152;2023-03-29T15:29:45;14.30;99.90
29731;DHT22;16639;51.488;0.152;2023-03-29T15:32:29;14.20;99.90
29731;DHT22;16639;51.488;0.152;2023-03-29T15:35:02;14.20;99.90
29731;DHT22;16639;51.488;0.152;2023-03-29T15:37:31;14.10;99.90
29731;DHT22;16639;51.488;0.152;2023-03-29T15:39:58;14.10;99.90
29731;DHT22;16639;51.488;0.152;2023-03-29T15:42:26;14.20;99.90
29731;DHT22;16639;51.488;0.152;2023-03-29T15:44:54;14.20;99.90
29731;DHT22;16639;51.488;0.152;2023-03-29T15:47:22;14.20;99.90
29731;DHT22;16639;51.488;0.152;2023-03-29T15:49:50;14.20;99.90
29731;DHT22;16639;51.488;0.152;2023-03-29T15:52:18;14.30;99.90
29731;DHT22;16639;51.488;0.152;2023-03-29T15:54:45;14.30;99.90
29731;DHT22;16639;51.488;0.152;2023-03-29T15:57:14;14.30;99.90
29731;DHT22;16639;51.488;0.152;2023-03-29T15:59:42;14.30;99.90
29731;DHT22;16639;51.488;0.152;2023-03-29T16:02:14;14.30;99.90
29731;DHT22;16639;51.488;0.152;2023-03-29T16:04:42;14.30;99.90
29731;DHT22;16639;51.488;0.152;2023-03-29T16:07:13;14.30;99.90
29731;DHT22;16639;51.488;0.152;2023-03-29T16:09:42;14.30;99.90
29731;DHT22;16639;51.488;0.152;2023-03-29T16:12:10;14.20;99.90
29731;DHT22;16639;51.488;0.152;2023-03-29T16:14:38;14.20;99.90
29731;DHT22;16639;51.488;0.152;2023-03-29T16:17:05;14.20;99.90
29731;DHT22;16639;51.488;0.152;2023-03-29T16:19:33;14.20;99.90
29731;DHT22;16639;51.488;0.152;2023-03-29T16:22:02;14.20;99.90
29731;DHT22;16639;51.488;0.152;2023-03-29T16:24:34;14.30;99.90
29731;DHT22;16639;51.488;0.152;2023-03-29T16:27:02;14.20;99.90
29731;DHT22;16639;51.488;0.152;2023-03-29T16:29:30;14.30;99.90
29731;DHT22;16639;51.488;0.152;2023-03-29T16:31:58;14.30;99.90
29731;DHT22;16639;51.488;0.152;2023-03-29T16:34:25;14.30;99.90
29731;DHT22;16639;51.488;0.152;2023-03-29T16:36:53;14.30;99.90
29731;DHT22;16639;51.488;0.152;2023-03-29T16:39:20;14.30;99.90
29731;DHT22;16639;51.488;0.152;2023-03-29T16:41:48;14.30;99.90
29731;DHT22;16639;51.488;0.152;2023-03-29T16:44:18;14.30;99.90
29731;DHT22;16639;51.488;0.152;2023-03-29T16:46:50;14.30;99.90
29731;DHT22;16639;51.488;0.152;2023-03-29T16:49:20;14.30;99.90
29731;DHT22;16639;51.488;0.152;2023-03-29T16:51:48;14.30;99.90
29731;DHT22;16639;51.488;0.152;2023-03-29T16:54:16;14.30;99.90
29731;DHT22;16639;51.488;0.152;2023-03-29T16:56:43;14.30;99.90
29731;DHT22;16639;51.488;0.152;2023-03-29T16:59:11;14.20;99.90
29731;DHT22;16639;51.488;0.152;2023-03-29T17:01:38;14.20;99.90
29731;DHT22;16639;51.488;0.152;2023-03-29T17:04:07;14.10;99.90
29731;DHT22;16639;51.488;0.152;2023-03-29T17:06:35;13.80;99.90
29731;DHT22;16639;51.488;0.152;2023-03-29T17:09:03;14.10;99.90
29731;DHT22;16639;51.488;0.152;2023-03-29T17:11:32;14.10;99.90
29731;DHT22;16639;51.488;0.152;2023-03-29T17:14:00;14.10;99.90
29731;DHT22;16639;51.488;0.152;2023-03-29T17:16:28;14.10;99.90
29731;DHT22;16639;51.488;0.152;2023-03-29T17:18:59;14.10;99.90
29731;DHT22;16639;51.488;0.152;2023-03-29T17:21:28;14.10;99.90
29731;DHT22;16639;51.488;0.152;2023-03-29T17:23:58;14.10;99.90
29731;DHT22;16639;51.488;0.152;2023-03-29T17:26:28;13.80;99.90
29731;DHT22;16639;51.488;0.152;2023-03-29T17:28:55;14.10;99.90
29731;DHT22;16639;51.488;0.152;2023-03-29T17:31:24;14.00;99.90
29731;DHT22;16639;51.488;0.152;2023-03-29T17:33:52;13.90;99.90
29731;DHT22;16639;51.488;0.152;2023-03-29T17:36:20;14.00;99.90
29731;DHT22;16639;51.488;0.152;2023-03-29T17:38:50;13.90;99.90
29731;DHT22;16639;51.488;0.152;2023-03-29T17:41:17;14.00;99.90
29731;DHT22;16639;51.488;0.152;2023-03-29T17:43:45;13.90;99.90
29731;DHT22;16639;51.488;0.152;2023-03-29T17:46:13;14.20;99.90
29731;DHT22;16639;51.488;0.152;2023-03-29T17:48:42;13.80;99.90
29731;DHT22;16639;51.488;0.152;2023-03-29T17:51:10;13.80;99.90
29731;DHT22;16639;51.488;0.152;2023-03-29T17:53:37;13.70;99.90
29731;DHT22;16639;51.488;0.152;2023-03-29T17:56:05;13.40;99.90
29731;DHT22;16639;51.488;0.152;2023-03-29T17:58:33;13.70;99.90
29731;DHT22;16639;51.488;0.152;2023-03-29T18:01:11;13.70;99.90